Shymkent, Kazakhstan

12:11 AM ALMT on August 30, 2014 (GMT +0600)
Shymkent | Change Station
CLOSE
Current Station
Airport
Location: Shymkent,
Elevation: 1385 ft
Nearby Weather Stations

Elev 1385 ft 42.37 °N, 69.48 °E | Updated 11 minutes ago

Clear
Clear
81 °F
Feels Like 81 °F
N
11
Wind Variable Wind from East
Gusts 22 mph

Today
High -- | Low -- °F
--% Chance of Precip.
Yesterday
High -- | Low -- °F
Precip. -- in
6:44 AM 8:00 PM
Waxing Crescent, 15% visible
Pressure 29.83 in
Visibility -9999.0 miles
Clouds
Dew Point 16 °F
Humidity 9%
Rainfall 0.00 in
Snow Depth Not available.
UV Not available.
Pollen Not available.
Air Quality Not available.
Flu Activity Not available.
METAR UAII 291800Z 08005G10MPS CAVOK 27/M09 Q1010 R10/0///70 NOSIG RMK QFE722/0963

More Conditions Fewer Conditions

Pressure 29.83 in
Visibility -9999.0 miles
Clouds
Dew Point 16 °F
Humidity 9%
Rainfall 0.00 in
Snow Depth Not available.
UV Not available.
Pollen Not available.
Air Quality Not available.
Flu Activity Not available.
METAR UAII 291800Z 08005G10MPS CAVOK 27/M09 Q1010 R10/0///70 NOSIG RMK QFE722/0963

More Conditions Fewer Conditions

10-Day Weather Forecast

Almanac

Astronomy

Aug. 30, 2014 Rise Set
Actual Time 6:44 AM ALMT 8:00 PM ALMT
Civil Twilight 6:15 AM ALMT 8:29 PM ALMT
Nautical Twilight 5:40 AM ALMT 9:03 PM ALMT
Astronomical Twilight 5:03 AM ALMT 9:40 PM ALMT
Moon 11:12 AM ALMT (8/30) 10:11 PM ALMT (8/30)
Length of Visible Light 14h 13m
Length of Day
13h 15m
Tomorrow will be 2m 45s shorter.
Waxing Crescent, 15% of the Moon is Illuminated
Aug 29
Waxing Crescent
Sep 2
First Quarter
Sep 8
Full
Sep 15
Last Quarter
Sep 24
New

Yesterday's Extremes

Country Highs Country Lows

Community

WunderPhotos

Upload Photos

1,748,309 photos uploaded!

Nearby

Snow Depth

Not available.

Earthquake Activity

City Distance Mag. Time & Date
No recent earthquake activity has been reported nearby.
Minimum magnitude displayed is 2.5.

Coastal Water Temperatures

Place Temperature
No Stations Reporting

Nearby Weather Stations